Cape Lookout National Seasho, North Carolina
Current Conditions -  °F | °C
As of 6:58 AM on Monday 26 Jan 2015 (Local Time) from KMRH Reporting Station
Broken Clouds Broken Clouds  
Wind Chill: 40°   Ceiling: 6000
Heat Index: 40°   Visibility: 10mi
Dew Point: 39°   Wind: 0mph
Humidity: 97%   Direction: NA
Pressure: 29.7"   Gusts: NA
Location:  34.8465°N, 76.6069°W
Report Text: KMRH 261158Z AUTO 00000KT 10SM BKN060 04/04 A2970 RMK AO2 SLP059 T00440039 10067 20022 55016 TSNO
Loading
Personal Weather Stations






























Interactive Weather Map New forecast layout! Learn more

10-Day Weather Forecast

Advertisements
Track Severe Weather on mobile